Terminal Aerodrome Forecast
Issued by NWS

Home | Current Version | Previous Version | Text Only | Print | Product List | Glossary Off
Versions: 1 2 3 4 5 6 7 8 9 10 11 12 13 14 15

000
FTUS43 KICT 162300
TAFCNU
TAF
KCNU 162325Z 1700/1724 18012KT P6SM SCT200
     FM170500 VRB03KT P6SM BKN200
     FM171000 03009KT P6SM OVC100
      TEMPO 1718/1722 6SM -RA OVC040=

USA.gov is the U.S. government's official web portal to all federal, state and local government web resources and services.